Time;durP1;ratioP1;P1;durP2;ratioP2;P2;SDS_P1;SDS_P2;PMS_P1;PMS_P2;Temp;Humidity;BMP_temperature;BMP_pressure;BME280_temperature;BME280_humidity;BME280_pressure;Samples;Min_cycle;Max_cycle;Signal;HPM_P1;HPM_P2
2020/12/01 00:01:54;;;;;;;29.33;16.17;;;;;;;-2.22;73.31;97991.22;1724742;83;21779;-76
2020/12/01 00:04:22;;;;;;;27.80;15.83;;;;;;;-2.30;73.22;97996.94;1724923;83;21152;-77
2020/12/01 00:06:49;;;;;;;25.83;13.27;;;;;;;-2.43;73.27;98001.84;1725602;83;21318;-77
2020/12/01 00:09:18;;;;;;;32.33;16.30;;;;;;;-2.44;73.53;98000.12;1725572;83;21290;-76
2020/12/01 00:11:46;;;;;;;30.03;15.70;;;;;;;-2.47;73.69;98004.06;1725047;83;21707;-77
2020/12/01 00:14:14;;;;;;;29.00;16.60;;;;;;;-2.54;73.60;98009.73;1725587;83;21274;-77
2020/12/01 00:16:45;;;;;;;23.37;12.70;;;;;;;-2.57;73.87;98010.64;1725934;83;21707;-76
2020/12/01 00:19:14;;;;;;;27.20;15.10;;;;;;;-2.59;73.64;98007.63;1725887;83;21444;-77
2020/12/01 00:21:45;;;;;;;28.67;14.60;;;;;;;-2.73;73.54;98003.94;1726031;83;21136;-80
2020/12/01 00:24:13;;;;;;;28.20;15.23;;;;;;;-2.80;73.85;98008.77;1726146;83;21796;-78
2020/12/01 00:26:43;;;;;;;26.50;14.27;;;;;;;-2.82;73.83;98010.92;1726173;83;21270;-76
2020/12/01 00:29:11;;;;;;;26.43;15.63;;;;;;;-2.94;73.68;97999.89;1726266;83;21315;-77
2020/12/01 00:31:42;;;;;;;25.13;14.03;;;;;;;-3.00;73.95;98004.69;1722905;83;21306;-78
2020/12/01 00:34:12;;;;;;;30.17;16.27;;;;;;;-3.05;73.94;98007.77;1712447;83;21153;-76
2020/12/01 00:36:41;;;;;;;22.70;12.37;;;;;;;-3.13;74.03;97998.81;1712231;83;21588;-75
2020/12/01 00:39:11;;;;;;;28.20;15.27;;;;;;;-3.17;74.11;98004.44;1711834;84;21148;-76
2020/12/01 00:41:40;;;;;;;24.53;14.23;;;;;;;-3.20;74.24;98007.05;1711569;84;21137;-79
2020/12/01 00:44:08;;;;;;;29.47;16.47;;;;;;;-3.11;74.80;98006.10;1712456;83;21137;-77
2020/12/01 00:46:35;;;;;;;28.67;15.97;;;;;;;-3.01;74.72;98006.42;1712692;84;21326;-77
2020/12/01 00:49:03;;;;;;;32.63;17.07;;;;;;;-2.92;74.69;98003.31;1712527;83;21180;-77
2020/12/01 00:51:31;;;;;;;33.10;16.53;;;;;;;-2.91;74.47;98005.03;1712058;83;21202;-78
2020/12/01 00:53:58;;;;;;;30.10;16.80;;;;;;;-2.86;74.49;98011.84;1712646;82;21133;-77
2020/12/01 00:56:25;;;;;;;31.93;16.90;;;;;;;-2.85;74.26;98007.53;1712348;83;21268;-75
2020/12/01 00:58:53;;;;;;;30.17;18.03;;;;;;;-2.84;74.23;98010.53;1712556;82;21153;-78
2020/12/01 01:01:40;;;;;;;39.45;18.87;;;;;;;-2.78;74.35;98007.86;1831496;77;24832;-77
2020/12/01 01:04:08;;;;;;;32.23;16.63;;;;;;;-2.78;74.35;98006.58;1795661;80;21257;-75
2020/12/01 01:06:36;;;;;;;37.30;18.23;;;;;;;-2.73;74.27;98003.52;1808701;78;21278;-76
2020/12/01 01:09:04;;;;;;;31.17;17.20;;;;;;;-2.73;73.81;97997.48;1831290;78;21648;-77
2020/12/01 01:11:33;;;;;;;32.27;17.23;;;;;;;-2.88;73.66;97994.68;1831302;78;21253;-75
2020/12/01 01:14:00;;;;;;;31.77;18.40;;;;;;;-3.03;73.89;97990.10;1818901;78;21688;-78
2020/12/01 01:16:28;;;;;;;31.87;17.50;;;;;;;-3.14;73.90;97992.81;1806784;78;21258;-76
2020/12/01 01:18:55;;;;;;;28.97;16.20;;;;;;;-3.26;73.93;97989.06;1818092;78;21281;-78
2020/12/01 01:21:23;;;;;;;36.27;19.37;;;;;;;-3.39;74.09;97982.34;1783571;80;21283;-78
2020/12/01 01:23:52;;;;;;;36.67;19.73;;;;;;;-3.49;74.16;97981.14;1782580;80;21678;-78
2020/12/01 01:26:20;;;;;;;37.13;20.10;;;;;;;-3.56;74.08;97982.05;1780069;81;21134;-78
2020/12/01 01:28:48;;;;;;;33.97;17.87;;;;;;;-3.61;74.40;97979.96;1790273;80;21588;-78
2020/12/01 01:31:19;;;;;;;27.37;14.13;;;;;;;-3.59;74.56;97975.66;1798041;80;21294;-79
2020/12/01 01:33:47;;;;;;;35.00;15.93;;;;;;;-3.73;75.27;97973.63;1798042;80;21162;-77
2020/12/01 01:36:16;;;;;;;34.63;17.37;;;;;;;-3.85;74.98;97968.98;1799343;80;21273;-77
2020/12/01 01:38:44;;;;;;;32.80;17.10;;;;;;;-3.96;74.84;97977.27;1798780;80;21737;-78
2020/12/01 01:41:11;;;;;;;34.53;17.23;;;;;;;-4.04;75.29;97970.03;1768134;81;21161;-79
2020/12/01 01:43:40;;;;;;;27.63;12.37;;;;;;;-4.11;76.08;97970.06;1772550;81;21245;-77
2020/12/01 01:46:41;;;;;;;23.23;11.60;;;;;;;-4.11;75.74;97967.48;1785996;80;21277;-75
2020/12/01 01:49:27;;;;;;;35.40;18.05;;;;;;;-4.13;76.74;97953.75;1765383;79;24702;-76
2020/12/01 01:51:57;;;;;;;39.57;20.77;;;;;;;-4.25;76.17;97956.45;1725935;82;21250;-77
2020/12/01 01:54:26;;;;;;;34.63;17.63;;;;;;;-4.27;76.28;97958.17;1726562;82;21246;-76
2020/12/01 01:57:01;;;;;;;63.03;33.43;;;;;;;-4.29;76.70;97954.74;1726273;83;21153;-77
2020/12/01 01:59:31;;;;;;;71.03;35.27;;;;;;;-4.31;77.10;97952.60;1731526;82;21681;-77
2020/12/01 02:02:00;;;;;;;74.77;36.93;;;;;;;-4.25;78.24;97953.87;1754792;81;21136;-77
2020/12/01 02:04:31;;;;;;;69.80;35.60;;;;;;;-4.17;77.60;97955.95;1748067;82;21136;-77
2020/12/01 02:07:04;;;;;;;63.23;31.63;;;;;;;-3.98;77.47;97959.22;1737025;82;21132;-77
2020/12/01 02:09:49;;;;;;;66.70;32.17;;;;;;;-3.78;77.64;97956.50;1727166;82;21234;-78
2020/12/01 02:12:18;;;;;;;74.47;36.00;;;;;;;-3.76;76.95;97960.34;1725893;83;21278;-78
2020/12/01 02:15:05;;;;;;;66.40;31.33;;;;;;;-3.77;76.83;97954.76;1746016;82;21163;-76
2020/12/01 02:17:37;;;;;;;74.07;33.50;;;;;;;-3.66;76.99;97963.25;1738528;82;21309;-78
2020/12/01 02:20:16;;;;;;;71.10;30.53;;;;;;;-3.66;76.89;97961.97;1742958;81;21184;-78
2020/12/01 02:22:54;;;;;;;87.63;40.57;;;;;;;-3.58;77.39;97964.48;1697203;84;21278;-77
2020/12/01 02:25:23;;;;;;;73.70;32.83;;;;;;;-3.65;77.29;97962.80;1690578;83;21289;-77
2020/12/01 02:27:56;;;;;;;73.60;32.30;;;;;;;-3.63;77.28;97961.08;1715602;83;21180;-76
2020/12/01 02:30:23;;;;;;;67.67;28.53;;;;;;;-3.61;77.21;97968.36;1687615;83;21140;-78
2020/12/01 02:32:51;;;;;;;60.43;26.27;;;;;;;-3.64;77.33;97962.81;1683336;83;21158;-76
2020/12/01 02:35:18;;;;;;;88.67;42.43;;;;;;;-3.72;78.26;97956.00;1724414;83;21286;-77
2020/12/01 02:37:47;;;;;;;87.40;41.00;;;;;;;-3.77;78.98;97956.92;1713461;83;21136;-78
2020/12/01 02:40:17;;;;;;;77.37;31.23;;;;;;;-3.71;79.03;97954.69;1711405;83;21691;-76
2020/12/01 02:42:52;;;;;;;48.67;22.00;;;;;;;-3.61;78.22;97958.05;1724956;83;21125;-76
2020/12/01 02:45:21;;;;;;;80.07;36.43;;;;;;;-3.58;78.25;97958.04;1697316;83;21290;-77
2020/12/01 02:47:48;;;;;;;81.60;33.83;;;;;;;-3.62;77.64;97956.34;1714650;83;21707;-76
2020/12/01 02:50:15;;;;;;;79.17;39.77;;;;;;;-3.67;77.95;97950.39;1684915;84;21353;-77
2020/12/01 02:52:44;;;;;;;71.43;32.83;;;;;;;-3.63;78.03;97948.19;1698134;84;21109;-78
2020/12/01 02:55:11;;;;;;;66.67;27.70;;;;;;;-3.59;77.85;97951.17;1713545;84;21132;-75
2020/12/01 02:57:38;;;;;;;50.83;22.27;;;;;;;-3.58;78.06;97941.28;1713314;84;21303;-76
2020/12/01 03:00:07;;;;;;;76.07;38.23;;;;;;;-3.58;77.96;97937.83;1703269;84;21160;-78
2020/12/01 03:02:34;;;;;;;75.13;37.23;;;;;;;-3.54;78.02;97945.97;1669782;84;21145;-75
2020/12/01 03:05:03;;;;;;;73.33;36.00;;;;;;;-3.43;78.13;97941.98;1711840;84;21164;-77
2020/12/01 03:07:31;;;;;;;72.00;32.33;;;;;;;-3.31;77.77;97942.70;1712466;83;21156;-76
2020/12/01 03:09:58;;;;;;;69.20;34.77;;;;;;;-3.21;77.44;97938.30;1671171;84;21776;-75
2020/12/01 03:12:25;;;;;;;72.53;32.57;;;;;;;-3.08;77.45;97935.56;1670138;84;21581;-79
2020/12/01 03:14:53;;;;;;;70.80;36.27;;;;;;;-3.02;76.99;97936.80;1709388;84;21136;-77
2020/12/01 03:17:20;;;;;;;77.27;36.77;;;;;;;-3.04;76.76;97934.66;1712375;83;21152;-76
2020/12/01 03:19:47;;;;;;;59.97;31.97;;;;;;;-3.06;77.11;97936.41;1691934;83;21206;-77
2020/12/01 03:22:15;;;;;;;64.93;33.17;;;;;;;-3.12;76.67;97933.91;1669556;84;21480;-77
2020/12/01 03:24:42;;;;;;;66.53;33.50;;;;;;;-3.18;78.07;97935.67;1691063;84;21136;-75
2020/12/01 03:27:10;;;;;;;64.20;32.80;;;;;;;-3.17;78.04;97938.67;1711731;83;21133;-77
2020/12/01 03:29:37;;;;;;;58.63;28.80;;;;;;;-3.11;77.89;97936.91;1672906;83;21189;-74
2020/12/01 03:32:05;;;;;;;47.47;25.43;;;;;;;-3.22;78.31;97940.47;1685435;84;21153;-75
2020/12/01 03:34:32;;;;;;;54.20;29.93;;;;;;;-3.23;77.54;97932.31;1711935;84;21140;-76
2020/12/01 03:37:00;;;;;;;47.37;25.13;;;;;;;-3.28;77.78;97939.67;1697081;84;21247;-77
2020/12/01 03:39:27;;;;;;;50.47;27.30;;;;;;;-3.36;77.32;97940.62;1683829;85;21346;-77
2020/12/01 03:41:55;;;;;;;53.17;27.70;;;;;;;-3.40;78.39;97941.96;1642267;85;21609;-76
2020/12/01 03:44:22;;;;;;;33.77;16.03;;;;;;;-3.42;77.67;97938.53;1683958;85;21330;-76
2020/12/01 03:46:50;;;;;;;57.97;26.97;;;;;;;-3.40;77.82;97940.67;1683955;84;21274;-78
2020/12/01 03:49:17;;;;;;;57.23;27.50;;;;;;;-3.40;77.73;97940.22;1700966;84;21164;-77
2020/12/01 03:51:45;;;;;;;57.53;28.20;;;;;;;-3.32;77.58;97934.98;1712877;84;21608;-77
2020/12/01 03:54:12;;;;;;;48.13;24.90;;;;;;;-3.26;77.96;97938.78;1712353;83;21157;-77
2020/12/01 03:56:40;;;;;;;49.37;27.37;;;;;;;-3.20;77.67;97943.86;1712568;83;21223;-78
2020/12/01 03:59:08;;;;;;;54.77;28.30;;;;;;;-3.15;77.73;97945.96;1712517;83;21165;-77
2020/12/01 04:01:35;;;;;;;38.03;18.87;;;;;;;-3.10;77.51;97945.03;1712173;83;21140;-77
2020/12/01 04:04:02;;;;;;;30.43;13.10;;;;;;;-3.03;77.22;97947.98;1712290;84;21567;-76
2020/12/01 04:06:30;;;;;;;44.80;24.53;;;;;;;-3.12;77.00;97950.67;1712280;83;21535;-76
2020/12/01 04:08:58;;;;;;;51.20;26.17;;;;;;;-3.20;77.10;97942.56;1712106;84;21181;-77
2020/12/01 04:11:25;;;;;;;43.33;21.40;;;;;;;-3.14;77.60;97950.25;1712226;84;21133;-77
2020/12/01 04:13:53;;;;;;;36.67;20.90;;;;;;;-3.10;77.17;97943.75;1712459;84;21171;-77
2020/12/01 04:16:20;;;;;;;42.77;23.77;;;;;;;-3.12;76.83;97945.52;1712433;84;21117;-76
2020/12/01 04:18:48;;;;;;;44.00;22.77;;;;;;;-3.21;76.96;97947.75;1712491;84;21221;-77
2020/12/01 04:21:15;;;;;;;45.27;23.70;;;;;;;-3.23;77.06;97949.48;1692657;84;21129;-76
2020/12/01 04:23:43;;;;;;;41.40;20.77;;;;;;;-3.31;77.27;97950.88;1712489;84;21161;-76
2020/12/01 04:26:10;;;;;;;29.80;15.50;;;;;;;-3.39;77.52;97947.53;1712596;84;21149;-77
2020/12/01 04:28:38;;;;;;;39.97;21.17;;;;;;;-3.43;77.00;97944.11;1712588;84;21188;-77
2020/12/01 04:31:08;;;;;;;48.20;24.20;;;;;;;-3.42;77.57;97944.98;1712161;83;21147;-78
2020/12/01 04:33:35;;;;;;;42.80;23.53;;;;;;;-3.41;77.32;97947.98;1713025;84;21148;-78
2020/12/01 04:36:02;;;;;;;46.37;22.87;;;;;;;-3.38;77.50;97937.61;1687660;84;21149;-76
2020/12/01 04:38:30;;;;;;;45.77;24.13;;;;;;;-3.31;77.59;97945.73;1688327;83;21380;-77
2020/12/01 04:40:58;;;;;;;41.30;21.20;;;;;;;-3.21;77.63;97945.17;1676460;84;21367;-78
2020/12/01 04:46:17;;;;;;;46.93;24.27;;;;;;;-3.17;77.47;97938.67;1628118;86;21224;-77
2020/12/01 04:48:50;;;;;;;46.33;22.60;;;;;;;-3.20;77.41;97932.25;1633098;86;21171;-76
2020/12/01 04:51:51;;;;;;;41.95;21.35;;;;;;;-2.99;77.64;97938.03;1775601;79;24659;-77
2020/12/01 04:54:44;;;;;;;38.93;19.33;;;;;;;-3.07;77.05;97938.14;1728178;82;21283;-76
2020/12/01 04:57:56;;;;;;;39.93;20.47;;;;;;;-3.13;77.14;97936.91;1677238;83;21136;-77
2020/12/01 05:00:44;;;;;;;44.97;23.97;;;;;;;-3.17;76.86;97930.94;1725718;83;21160;-76
2020/12/01 05:03:46;;;;;;;48.00;23.77;;;;;;;-3.16;77.34;97930.06;1735763;82;21562;-77
2020/12/01 05:09:43;;;;;;;31.67;15.27;;;;;;;-3.21;77.52;97934.44;1725874;82;21314;-74
2020/12/01 05:12:21;;;;;;;30.73;14.30;;;;;;;-3.24;77.34;97943.48;1734735;82;21560;-77
2020/12/01 05:15:00;;;;;;;37.03;20.27;;;;;;;-3.43;77.14;97934.25;1740901;82;21147;-77
2020/12/01 05:18:13;;;;;;;29.40;14.30;;;;;;;-3.66;77.47;97935.32;1725866;82;21274;-75
2020/12/01 05:20:46;;;;;;;39.20;22.17;;;;;;;-3.78;77.63;97932.44;1712948;83;21156;-76
2020/12/01 05:23:17;;;;;;;47.83;24.93;;;;;;;-3.85;78.59;97936.78;1718260;82;21302;-76
2020/12/01 05:25:44;;;;;;;49.13;21.70;;;;;;;-3.78;79.43;97935.88;1725638;83;21277;-76
2020/12/01 05:28:19;;;;;;;45.57;22.70;;;;;;;-3.75;79.25;97936.28;1725065;83;21155;-75
2020/12/01 05:30:52;;;;;;;48.83;23.03;;;;;;;-3.71;79.69;97935.81;1713922;83;21178;-76
2020/12/01 05:33:27;;;;;;;48.20;21.83;;;;;;;-3.63;79.65;97935.30;1718172;83;21140;-77
2020/12/01 05:36:17;;;;;;;34.33;14.87;;;;;;;-3.62;79.03;97931.41;1723195;83;21160;-76
2020/12/01 05:39:05;;;;;;;40.90;18.83;;;;;;;-3.53;78.87;97935.63;1718650;83;21120;-78
2020/12/01 05:41:37;;;;;;;13.67;6.17;;;;;;;-3.48;78.31;97933.84;1722141;83;21317;-77
2020/12/01 05:44:24;;;;;;;45.13;21.80;;;;;;;-3.46;78.32;97933.85;1723258;82;21136;-78
2020/12/01 05:47:09;;;;;;;19.30;8.67;;;;;;;-3.46;78.80;97926.11;1712212;83;21329;-77
2020/12/01 05:49:48;;;;;;;35.17;17.83;;;;;;;-3.47;78.73;97924.41;1725065;82;21364;-77
2020/12/01 05:52:30;;;;;;;41.63;18.60;;;;;;;-3.67;79.51;97929.33;1726273;83;21286;-77
2020/12/01 05:55:18;;;;;;;42.87;21.53;;;;;;;-3.81;80.79;97924.31;1726415;83;21168;-78
2020/12/01 05:58:09;;;;;;;30.10;13.20;;;;;;;-3.72;79.77;97922.51;1726454;83;21119;-75
2020/12/01 06:00:43;;;;;;;28.63;13.30;;;;;;;-3.68;79.30;97930.64;1726541;83;21155;-77
2020/12/01 06:03:32;;;;;;;37.80;17.20;;;;;;;-3.66;79.28;97925.02;1725596;83;21135;-75
2020/12/01 06:06:00;;;;;;;34.53;17.70;;;;;;;-3.62;79.01;97928.83;1725869;83;21289;-77
2020/12/01 06:08:43;;;;;;;45.10;20.03;;;;;;;-3.51;79.48;97926.58;1699703;83;21168;-76
2020/12/01 06:11:50;;;;;;;29.83;14.97;;;;;;;-3.50;78.84;97927.01;1725572;83;21307;-77
2020/12/01 06:14:38;;;;;;;32.43;16.17;;;;;;;-3.42;78.85;97926.94;1725732;83;21109;-78
2020/12/01 06:17:16;;;;;;;26.60;11.03;;;;;;;-3.38;78.69;97933.75;1725702;83;21135;-76
2020/12/01 06:19:52;;;;;;;24.60;12.47;;;;;;;-3.44;78.37;97934.70;1725093;83;21610;-79
2020/12/01 06:22:25;;;;;;;42.78;21.27;;;;;;;-3.47;78.45;97929.56;1725338;83;21151;-77
2020/12/01 06:25:42;;;;;;;41.47;20.23;;;;;;;-3.42;78.71;97934.22;1725433;83;21553;-77
2020/12/01 06:28:33;;;;;;;29.47;13.60;;;;;;;-3.24;79.24;97934.47;1725780;83;21286;-77
2020/12/01 06:31:47;;;;;;;35.17;16.57;;;;;;;-3.21;78.48;97930.57;1671956;86;21189;-76
2020/12/01 06:34:44;;;;;;;10.60;5.37;;;;;;;-3.19;78.33;97928.80;1672723;85;21517;-77
2020/12/01 06:37:34;;;;;;;27.25;12.40;;;;;;;-3.14;78.04;97931.33;1653762;87;21168;-78
2020/12/01 06:40:18;;;;;;;18.73;8.93;;;;;;;-3.23;77.96;97910.38;1652186;87;21171;-78
2020/12/01 06:42:53;;;;;;;41.40;17.80;;;;;;;-3.24;77.93;97921.56;1636521;87;21604;-77
2020/12/01 06:45:26;;;;;;;29.50;14.95;;;;;;;-3.25;78.36;97922.89;1631179;87;21210;-77
2020/12/01 06:48:05;;;;;;;34.30;16.70;;;;;;;-3.13;78.57;97925.30;1623915;87;21664;-77
2020/12/01 06:50:56;;;;;;;33.10;13.58;;;;;;;-2.92;78.27;97929.33;1851116;76;23609;-77
2020/12/01 06:53:34;;;;;;;32.47;15.37;;;;;;;-2.92;78.27;97929.33;1852090;77;21096;-77
2020/12/01 06:56:14;;;;;;;21.27;8.33;;;;;;;-2.86;78.57;97927.11;1831119;77;21259;-77
2020/12/01 06:58:45;;;;;;;34.73;16.70;;;;;;;-2.79;78.10;97924.02;1836426;77;21684;-76
2020/12/01 07:01:28;;;;;;;36.50;18.00;;;;;;;-2.75;78.70;97921.83;1827768;78;21131;-78
2020/12/01 07:04:20;;;;;;;27.43;13.60;;;;;;;-2.60;78.24;97921.61;1860833;77;21265;-77
2020/12/01 07:07:01;;;;;;;24.97;10.93;;;;;;;-2.50;77.62;97924.89;1861582;77;21119;-77
2020/12/01 07:09:42;;;;;;;33.13;16.03;;;;;;;-2.39;77.37;97928.17;1833772;77;21112;-77
2020/12/01 07:12:27;;;;;;;24.80;12.33;;;;;;;-2.32;76.87;97926.36;1827800;78;21137;-78
2020/12/01 07:15:15;;;;;;;17.67;8.83;;;;;;;-2.50;76.53;97924.89;1827269;78;21101;-77
2020/12/01 07:18:12;;;;;;;26.40;11.97;;;;;;;-2.51;76.80;97916.31;1828876;77;21105;-76
2020/12/01 07:20:48;;;;;;;28.90;15.20;;;;;;;-2.45;77.04;97911.91;1849398;77;21116;-80
2020/12/01 07:23:38;;;;;;;22.17;10.93;;;;;;;-2.28;77.55;97902.20;1843153;77;21112;-78
2020/12/01 07:26:46;;;;;;;24.17;11.87;;;;;;;-2.07;76.55;97899.70;1827606;78;21608;-77
2020/12/01 07:29:44;;;;;;;24.13;12.07;;;;;;;-2.07;76.47;97900.13;1852544;77;21107;-78
2020/12/01 07:32:21;;;;;;;31.75;16.93;;;;;;;-1.93;76.47;97893.44;1828213;78;21225;-80
2020/12/01 07:34:53;;;;;;;35.43;18.97;;;;;;;-1.79;76.17;97895.36;1828056;78;21258;-79
2020/12/01 07:37:44;;;;;;;41.10;20.33;;;;;;;-1.62;75.08;97893.73;1825515;78;21105;-79
2020/12/01 07:40:25;;;;;;;16.27;8.07;;;;;;;-1.38;76.36;97889.00;1844137;77;21218;-80
2020/12/01 07:43:03;;;;;;;28.83;16.45;;;;;;;-1.26;74.02;97898.24;1859596;77;21142;-77
2020/12/01 07:45:35;;;;;;;30.43;16.47;;;;;;;-1.27;74.07;97894.81;1863090;77;21226;-85
2020/12/01 07:48:06;;;;;;;26.83;14.63;;;;;;;-1.24;73.49;97894.31;1862432;77;21139;-82
2020/12/01 07:50:34;;;;;;;27.83;14.30;;;;;;;-1.39;72.73;97896.34;1850812;77;21238;-77
2020/12/01 07:53:12;;;;;;;17.47;8.93;;;;;;;-1.49;72.99;97896.97;1834682;77;21135;-80
2020/12/01 07:56:04;;;;;;;30.47;15.93;;;;;;;-1.40;73.56;97902.39;1838950;77;21262;-84
2020/12/01 07:58:32;;;;;;;19.97;9.37;;;;;;;-1.38;73.44;97899.34;1818400;77;21233;-78
2020/12/01 08:01:05;;;;;;;30.73;15.13;;;;;;;-1.26;73.40;97899.11;1816469;79;21146;-81
2020/12/01 08:03:38;;;;;;;33.92;18.77;;;;;;;-1.32;73.44;97897.92;1815862;78;21267;-82
2020/12/01 08:06:13;;;;;;;29.67;17.60;;;;;;;-1.14;72.80;97895.42;1817724;79;21256;-79
2020/12/01 08:08:45;;;;;;;29.00;15.48;;;;;;;-0.99;73.21;97898.55;1816036;79;21578;-83
2020/12/01 08:11:17;;;;;;;29.37;15.13;;;;;;;-1.03;72.09;97893.89;1815921;79;21575;-82
2020/12/01 08:13:49;;;;;;;29.93;14.97;;;;;;;-1.14;71.52;97889.37;1816413;79;21164;-81
2020/12/01 08:16:21;;;;;;;19.60;9.83;;;;;;;-1.29;71.77;97888.81;1816299;79;21137;-83
2020/12/01 08:18:51;;;;;;;23.40;13.37;;;;;;;-1.26;71.56;97892.64;1816563;79;21126;-83
2020/12/01 08:21:23;;;;;;;22.07;10.13;;;;;;;-1.26;72.33;97891.77;1818072;79;21140;-81
2020/12/01 08:23:56;;;;;;;28.37;13.30;;;;;;;-1.20;71.93;97892.09;1818036;79;21276;-80
2020/12/01 08:26:31;;;;;;;22.47;11.50;;;;;;;-1.23;72.47;97893.44;1816051;79;21138;-83
2020/12/01 08:29:24;;;;;;;14.57;7.80;;;;;;;-1.16;72.58;97892.45;1816094;79;21114;-81
2020/12/01 08:32:03;;;;;;;28.03;14.80;;;;;;;-1.04;72.27;97901.23;1789171;80;21158;-82
2020/12/01 08:35:03;;;;;;;25.62;14.28;;;;;;;-1.04;72.16;97897.81;1852656;77;24103;-84
2020/12/01 08:37:56;;;;;;;;;;;;;;;-1.06;71.98;97890.06;1832045;78;21307;-81
2020/12/01 08:41:07;;;;;;;19.50;9.47;;;;;;;-1.18;71.88;97889.04;1829599;78;20204;-80
2020/12/01 08:43:57;;;;;;;26.23;13.20;;;;;;;-1.27;72.24;97886.19;1830000;78;21631;-81
2020/12/01 08:46:56;;;;;;;30.80;14.47;;;;;;;-1.35;72.95;97885.06;1878680;75;25071;-81
2020/12/01 08:49:43;;;;;;;24.97;11.07;;;;;;;-1.45;72.62;97882.24;1846901;77;21224;-82
2020/12/01 08:52:42;;;;;;;18.57;10.30;;;;;;;-1.56;72.92;97875.96;1863302;77;21245;-82
2020/12/01 08:55:26;;;;;;;13.87;6.53;;;;;;;-1.62;72.99;97883.84;1833410;77;21250;-80
2020/12/01 08:58:23;;;;;;;30.90;15.23;;;;;;;-1.80;72.77;97879.85;1864498;77;21194;-80
2020/12/01 09:01:12;;;;;;;24.50;12.40;;;;;;;-1.76;73.85;97886.23;1861140;77;21171;-83
2020/12/01 09:03:58;;;;;;;21.07;12.13;;;;;;;-1.64;73.75;97875.27;1866223;77;21150;-80
2020/12/01 09:06:35;;;;;;;24.47;10.43;;;;;;;-1.61;73.80;97867.00;1866361;77;21127;-80
2020/12/01 09:09:14;;;;;;;26.43;14.67;;;;;;;-1.70;73.45;97871.05;1864071;77;21324;-82
2020/12/01 09:23:19;;;;;;;21.73;10.72;;;;;;;-1.61;73.78;97869.59;1826091;77;24549;-83
2020/12/01 09:25:52;;;;;;;23.20;10.10;;;;;;;-1.82;74.05;97856.63;1762345;81;21297;-82
2020/12/01 09:28:25;;;;;;;30.27;15.17;;;;;;;-1.81;74.51;97853.17;1771974;81;21143;-82
2020/12/01 09:30:55;;;;;;;32.77;15.23;;;;;;;-1.76;74.82;97850.50;1771967;81;21693;-80
2020/12/01 09:33:23;;;;;;;31.80;17.90;;;;;;;-1.64;74.77;97850.28;1771335;81;21755;-83
2020/12/01 09:35:50;;;;;;;22.37;11.37;;;;;;;-1.50;74.76;97843.55;1771815;81;21274;-84
2020/12/01 09:38:18;;;;;;;25.40;9.67;;;;;;;-1.33;74.03;97838.47;1771405;81;21597;-81
2020/12/01 09:40:49;;;;;;;30.13;13.80;;;;;;;-1.26;74.05;97837.45;1761504;81;21289;-81
2020/12/01 09:43:37;;;;;;;15.43;7.87;;;;;;;-1.30;74.14;97827.61;1771458;81;21644;-81
2020/12/01 09:46:08;;;;;;;31.43;15.43;;;;;;;-1.13;74.13;97822.52;1761805;81;21588;-82
2020/12/01 09:48:36;;;;;;;27.50;12.80;;;;;;;-1.05;74.04;97826.23;1770945;81;21124;-80
2020/12/01 09:51:03;;;;;;;39.77;20.37;;;;;;;-1.06;73.71;97821.48;1771237;81;21688;-82
2020/12/01 10:09:25;;;;;;;31.40;13.88;;;;;;;-1.08;73.67;97802.58;1771767;81;21302;-83
2020/12/01 10:35:23;;;;;;;25.55;12.90;;;;;;;-1.50;73.58;97779.31;1787630;80;21100;-83
2020/12/01 10:37:58;;;;;;;28.27;14.57;;;;;;;-1.59;74.00;97781.21;1786589;80;21135;-79
2020/12/01 10:40:27;;;;;;;24.40;13.43;;;;;;;-1.60;74.11;97777.38;1785725;80;21159;-85
2020/12/01 10:42:57;;;;;;;30.17;14.67;;;;;;;-1.63;74.32;97763.21;1788748;80;21099;-81
2020/12/01 10:45:28;;;;;;;30.87;15.57;;;;;;;-1.66;74.51;97764.12;1785695;80;21096;-78
2020/12/01 10:47:58;;;;;;;21.00;11.30;;;;;;;-1.65;74.59;97763.25;1787484;80;21139;-84
2020/12/01 10:50:29;;;;;;;38.40;19.50;;;;;;;-1.62;74.88;97768.34;1748724;80;21156;-83
2020/12/01 10:52:57;;;;;;;32.07;18.83;;;;;;;-1.71;75.59;97765.10;1737987;82;21284;-78
2020/12/01 10:55:31;;;;;;;30.47;17.07;;;;;;;-1.64;75.28;97767.55;1739594;80;21315;-82
2020/12/01 10:57:59;;;;;;;30.73;17.87;;;;;;;-1.65;74.77;97767.13;1738165;82;21284;-80
2020/12/01 11:00:28;;;;;;;35.07;19.23;;;;;;;-1.78;74.98;97769.53;1738284;82;21274;-82
2020/12/01 11:02:56;;;;;;;37.83;20.10;;;;;;;-1.92;76.12;97774.55;1743662;80;21280;-81
2020/12/01 11:05:31;;;;;;;40.70;19.17;;;;;;;-1.92;76.72;97762.92;1725923;80;21576;-76
2020/12/01 11:07:59;;;;;;;39.27;21.17;;;;;;;-1.83;75.89;97762.33;1776046;80;21618;-81
2020/12/01 11:10:27;;;;;;;39.00;20.93;;;;;;;-1.94;76.03;97764.68;1763952;81;21284;-79
2020/12/01 11:12:56;;;;;;;40.90;16.00;;;;;;;-1.91;76.27;97756.01;1758534;81;21282;-77
2020/12/01 11:15:24;;;;;;;36.77;18.90;;;;;;;-1.89;75.81;97751.21;1756291;82;21168;-80
2020/12/01 11:17:51;;;;;;;31.97;16.97;;;;;;;-1.87;76.18;97740.87;1766865;80;21268;-79
2020/12/01 11:20:19;;;;;;;27.87;14.87;;;;;;;-1.79;75.72;97738.11;1786916;80;21604;-80
2020/12/01 11:22:51;;;;;;;23.37;11.83;;;;;;;-1.71;75.99;97733.62;1788094;80;21185;-79
2020/12/01 11:25:20;;;;;;;27.10;11.37;;;;;;;-1.67;75.58;97734.44;1787735;80;21137;-80
2020/12/01 11:27:47;;;;;;;31.17;16.17;;;;;;;-1.58;75.74;97729.91;1762093;80;21547;-80
2020/12/01 11:30:22;;;;;;;30.47;15.03;;;;;;;-1.43;75.08;97728.73;1744828;80;21646;-80
2020/12/01 11:32:50;;;;;;;31.80;16.27;;;;;;;-1.42;75.03;97729.57;1785673;80;21143;-80
2020/12/01 11:35:21;;;;;;;33.80;17.50;;;;;;;-1.39;74.50;97724.80;1762469;80;21600;-79
2020/12/01 11:37:48;;;;;;;32.00;16.33;;;;;;;-1.53;74.45;97725.09;1738916;80;21319;-82
2020/12/01 11:40:17;;;;;;;29.50;16.37;;;;;;;-1.64;74.61;97723.59;1740428;80;21257;-79
2020/12/01 11:42:44;;;;;;;34.87;18.67;;;;;;;-1.67;75.13;97719.77;1763373;80;21193;-76
2020/12/01 11:45:14;;;;;;;36.70;16.77;;;;;;;-1.64;75.39;97711.09;1767446;80;21127;-78
2020/12/01 11:47:42;;;;;;;25.63;12.33;;;;;;;-1.59;75.38;97712.69;1774277;80;21130;-78
2020/12/01 11:50:12;;;;;;;34.90;18.67;;;;;;;-1.51;74.95;97708.66;1775456;80;21188;-77
2020/12/01 11:52:40;;;;;;;25.93;10.60;;;;;;;-1.53;75.11;97703.95;1771728;80;21581;-78
2020/12/01 11:55:09;;;;;;;30.97;14.03;;;;;;;-1.52;74.97;97701.78;1766997;80;21143;-79
2020/12/01 11:57:37;;;;;;;32.17;17.53;;;;;;;-1.60;74.96;97700.64;1721652;83;21119;-78
2020/12/01 12:00:08;;;;;;;24.60;11.17;;;;;;;-1.63;75.26;97700.73;1770855;80;21141;-81
2020/12/01 12:02:38;;;;;;;18.37;10.67;;;;;;;-1.57;75.16;97693.26;1720411;83;21619;-76
2020/12/01 12:05:05;;;;;;;31.23;16.83;;;;;;;-1.55;75.16;97693.25;1776631;80;21161;-79
2020/12/01 12:07:32;;;;;;;32.17;17.47;;;;;;;-1.63;75.43;97693.41;1765189;80;21353;-77
2020/12/01 12:10:00;;;;;;;25.80;11.90;;;;;;;-1.68;75.53;97693.50;1720537;83;21140;-79
2020/12/01 12:12:28;;;;;;;33.17;17.00;;;;;;;-1.65;75.36;97691.28;1772753;80;21165;-78
2020/12/01 12:14:55;;;;;;;23.80;11.80;;;;;;;-1.69;75.48;97690.96;1772575;80;21115;-78
2020/12/01 12:17:23;;;;;;;23.07;11.37;;;;;;;-1.65;75.51;97685.69;1771013;80;21143;-76
2020/12/01 12:19:50;;;;;;;22.40;10.47;;;;;;;-1.57;75.40;97687.66;1772714;80;21150;-77
2020/12/01 12:22:18;;;;;;;32.17;17.03;;;;;;;-1.60;75.25;97682.55;1772620;80;21152;-81
2020/12/01 12:24:45;;;;;;;31.40;18.40;;;;;;;-1.63;75.12;97684.36;1774349;80;21202;-75
2020/12/01 12:27:13;;;;;;;23.00;11.63;;;;;;;-1.70;75.28;97683.63;1766775;80;21173;-78
2020/12/01 12:29:40;;;;;;;31.13;14.83;;;;;;;-1.73;75.53;97682.42;1769709;80;21602;-78
2020/12/01 12:32:07;;;;;;;26.60;13.93;;;;;;;-1.80;75.70;97682.13;1771852;80;21174;-75
2020/12/01 12:34:35;;;;;;;27.97;13.80;;;;;;;-1.80;75.49;97685.58;1775267;80;21106;-79
2020/12/01 12:37:02;;;;;;;27.47;13.80;;;;;;;-1.89;75.54;97667.22;1771744;80;21555;-78
2020/12/01 12:39:31;;;;;;;30.13;16.43;;;;;;;-1.93;75.89;97682.83;1766962;80;21571;-78
2020/12/01 12:41:59;;;;;;;33.00;15.63;;;;;;;-1.93;76.41;97683.70;1720157;83;21182;-76
2020/12/01 12:44:29;;;;;;;25.07;13.10;;;;;;;-1.79;76.05;97686.41;1772452;80;21133;-77
2020/12/01 12:46:59;;;;;;;29.03;15.07;;;;;;;-1.84;76.01;97674.05;1768810;80;21155;-77